Time;durP1;ratioP1;P1;durP2;ratioP2;P2;SDS_P1;SDS_P2;PMS_P1;PMS_P2;Temp;Humidity;BMP_temperature;BMP_pressure;BME280_temperature;BME280_humidity;BME280_pressure;Samples;Min_cycle;Max_cycle;Signal;HPM_P1;HPM_P2
2023/04/11 00:01:15;;;;;;;;;1.00;1.00;;;;;14.36;100.00;100829.53;5063605;28;28499;-82
2023/04/11 00:03:40;;;;;;;;;2.00;2.00;;;;;14.28;100.00;100846.47;5057249;28;29733;-82
2023/04/11 00:06:06;;;;;;;;;2.67;1.33;;;;;14.24;100.00;100844.69;5056584;28;36811;-81
2023/04/11 00:08:31;;;;;;;;;1.33;1.33;;;;;14.18;100.00;100850.94;5056834;28;33283;-83
2023/04/11 00:14:18;;;;;;;;;4.00;2.33;;;;;14.19;100.00;100836.66;5055319;28;43881;-83
2023/04/11 00:16:44;;;;;;;;;2.67;1.00;;;;;14.21;100.00;100849.13;5056726;28;30372;-84
2023/04/11 00:19:09;;;;;;;;;0.00;0.00;;;;;14.16;100.00;100852.72;5055991;28;42395;-84
2023/04/11 00:21:38;;;;;;;;;2.67;1.67;;;;;14.16;100.00;100858.06;5056585;28;37494;-84
2023/04/11 00:24:07;;;;;;;;;1.00;1.00;;;;;14.13;100.00;100848.25;5058160;28;43626;-84
2023/04/11 00:26:32;;;;;;;;;3.00;3.00;;;;;14.09;100.00;100851.81;5057305;28;41796;-84
2023/04/11 00:28:58;;;;;;;;;2.00;1.00;;;;;14.09;100.00;100843.78;5062489;28;41164;-84
2023/04/11 00:31:23;;;;;;;;;3.25;2.00;;;;;14.05;100.00;100846.47;5082930;28;40519;-84
2023/04/11 00:33:49;;;;;;;;;2.00;2.00;;;;;14.06;100.00;100846.47;5078084;28;42505;-84
2023/04/11 00:36:15;;;;;;;;;1.00;1.00;;;;;14.01;100.00;100857.13;5079167;28;44212;-84
2023/04/11 00:38:41;;;;;;;;;2.50;1.00;;;;;14.02;100.00;100852.69;5078925;28;44625;-83
2023/04/11 00:41:07;;;;;;;;;1.00;1.00;;;;;13.99;100.00;100855.34;5035665;28;42165;-83
2023/04/11 00:43:33;;;;;;;;;1.00;1.00;;;;;14.12;100.00;100853.63;4995529;28;43878;-83
2023/04/11 00:45:59;;;;;;;;;3.25;1.00;;;;;14.04;100.00;100864.28;4998394;28;42521;-83
2023/04/11 00:48:27;;;;;;;;;2.50;1.50;;;;;13.98;100.00;100856.25;5066855;27;43107;-84
2023/04/11 00:50:53;;;;;;;;;0.25;0.25;;;;;13.97;100.00;100857.13;4992649;27;42875;-84
2023/04/11 00:53:19;;;;;;;;;1.00;1.00;;;;;13.95;100.00;100869.59;4986566;27;44732;-84
2023/04/11 00:55:45;;;;;;;;;2.00;2.00;;;;;13.80;100.00;100862.44;4989701;28;44452;-84
2023/04/11 00:58:11;;;;;;;;;1.00;1.00;;;;;13.79;100.00;100871.34;5057367;28;43816;-84
2023/04/11 01:00:37;;;;;;;;;1.33;0.67;;;;;13.77;100.00;100865.09;5067125;28;42151;-83
2023/04/11 01:03:47;;;;;;;;;0.00;0.00;;;;;14.10;100.00;100868.72;4986646;28;44553;-83
2023/04/11 01:06:13;;;;;;;;;4.00;2.00;;;;;13.78;100.00;100873.13;4965569;28;44153;-83
2023/04/11 01:08:42;;;;;;;;;1.67;1.67;;;;;13.95;100.00;100862.47;5052243;28;45347;-83
2023/04/11 01:11:08;;;;;;;;;0.33;0.33;;;;;13.84;100.00;100863.38;5030215;28;43441;-82
2023/04/11 01:13:38;;;;;;;;;1.67;1.67;;;;;13.87;100.00;100864.22;5031266;28;45340;-83
2023/04/11 01:19:28;;;;;;;;;0.00;0.00;;;;;13.73;100.00;100892.72;4964393;28;44639;-82
2023/04/11 01:21:56;;;;;;;;;1.00;1.00;;;;;13.83;100.00;100881.16;5031498;28;44976;-81
2023/04/11 01:24:22;;;;;;;;;0.00;0.00;;;;;13.71;100.00;100887.34;5031373;28;45466;-82
2023/04/11 01:26:47;;;;;;;;;2.33;2.00;;;;;13.83;100.00;100891.84;4962537;28;44959;-82
2023/04/11 01:29:13;;;;;;;;;1.00;0.67;;;;;13.65;100.00;100865.94;4963863;28;44704;-83
2023/04/11 01:31:38;;;;;;;;;1.67;1.67;;;;;13.66;100.00;100867.75;5031457;28;45056;-82
2023/04/11 01:34:04;;;;;;;;;4.00;1.33;;;;;13.74;100.00;100860.66;4965759;28;46185;-82
2023/04/11 01:36:31;;;;;;;;;2.00;1.00;;;;;13.68;100.00;100873.09;5028444;28;45353;-82
2023/04/11 01:38:57;;;;;;;;;3.75;2.00;;;;;13.69;100.00;100882.91;4960630;28;45130;-82
2023/04/11 01:41:27;;;;;;;;;1.67;1.67;;;;;13.87;100.00;100880.28;5035354;28;45324;-82
2023/04/11 01:43:53;;;;;;;;;2.00;1.00;;;;;13.58;100.00;100878.41;5047731;28;45888;-82
2023/04/11 01:46:18;;;;;;;;;2.33;2.33;;;;;13.54;100.00;100884.63;5046139;28;45133;-82
2023/04/11 01:48:44;;;;;;;;;1.33;1.00;;;;;13.49;100.00;100878.38;5050033;28;45203;-82
2023/04/11 01:51:10;;;;;;;;;2.33;1.00;;;;;13.50;100.00;100876.59;5045372;28;45182;-82
2023/04/11 01:53:35;;;;;;;;;2.00;2.00;;;;;13.49;100.00;100893.50;5045203;28;46713;-82
2023/04/11 01:56:01;;;;;;;;;2.67;0.00;;;;;13.49;100.00;100901.50;5044915;28;45373;-82
2023/04/11 01:58:26;;;;;;;;;2.33;1.00;;;;;13.49;100.00;100890.81;5046982;28;44800;-83
2023/04/11 02:00:53;;;;;;;;;1.00;1.00;;;;;13.61;100.00;100890.88;5047664;28;44314;-82
2023/04/11 02:03:19;;;;;;;;;1.33;0.00;;;;;13.46;100.00;100896.19;5046741;28;45135;-82
2023/04/11 02:05:45;;;;;;;;;1.00;1.00;;;;;13.46;100.00;100901.53;5045398;28;45428;-82
2023/04/11 02:08:11;;;;;;;;;3.00;2.00;;;;;13.44;100.00;100903.28;5047441;28;45247;-82
2023/04/11 02:10:37;;;;;;;;;2.00;1.00;;;;;13.38;100.00;100909.50;5046999;28;45565;-82
2023/04/11 02:13:04;;;;;;;;;0.67;0.67;;;;;13.50;100.00;100906.88;5044729;28;46882;-82
2023/04/11 02:15:29;;;;;;;;;2.00;2.00;;;;;13.36;100.00;100895.22;5044183;28;45607;-83
2023/04/11 02:17:55;;;;;;;;;2.33;0.00;;;;;13.39;100.00;100901.50;5045536;28;45228;-82
2023/04/11 02:20:22;;;;;;;;;3.00;1.67;;;;;13.34;100.00;100907.69;5053535;28;45364;-82
2023/04/11 02:22:47;;;;;;;;;1.33;1.00;;;;;13.39;100.00;100917.53;5065855;28;44762;-82
2023/04/11 02:25:14;;;;;;;;;3.00;2.00;;;;;13.56;100.00;100900.66;5067614;28;44998;-82
2023/04/11 02:27:40;;;;;;;;;3.67;1.00;;;;;13.28;100.00;100887.13;5066217;28;45336;-82
2023/04/11 02:30:06;;;;;;;;;1.00;1.00;;;;;13.44;100.00;100913.97;5066692;28;45070;-82
2023/04/11 02:32:36;;;;;;;;;1.00;1.00;;;;;13.46;100.00;100905.06;5068174;28;45937;-82
2023/04/11 02:35:03;;;;;;;;;1.00;1.00;;;;;13.30;100.00;100908.56;5065955;28;45449;-82
2023/04/11 02:37:29;;;;;;;;;2.00;2.00;;;;;13.30;100.00;100914.78;5070944;28;45364;-82
2023/04/11 02:39:56;;;;;;;;;1.00;1.00;;;;;13.29;100.00;100918.34;5066877;28;45621;-82
2023/04/11 02:42:28;;;;;;;;;1.00;1.00;;;;;13.53;100.00;100916.69;4988975;28;45837;-83
2023/04/11 02:44:54;;;;;;;;;0.00;0.00;;;;;13.26;100.00;100917.41;4983293;28;45077;-83
2023/04/11 02:47:20;;;;;;;;;0.00;0.00;;;;;13.24;100.00;100920.06;4980879;28;45279;-83
2023/04/11 02:49:45;;;;;;;;;1.33;1.00;;;;;13.27;100.00;100916.50;5048644;28;45257;-83
2023/04/11 02:52:11;;;;;;;;;2.00;2.00;;;;;13.26;100.00;100912.94;5046325;28;47942;-83
2023/04/11 02:54:36;;;;;;;;;1.00;1.00;;;;;13.29;100.00;100914.72;4978946;28;45380;-83
2023/04/11 02:57:02;;;;;;;;;1.67;1.67;;;;;13.33;100.00;100917.50;5048019;28;45587;-83
2023/04/11 02:59:29;;;;;;;;;1.33;1.00;;;;;13.56;100.00;100930.06;5047750;28;45148;-83
2023/04/11 03:01:58;;;;;;;;;2.00;2.00;;;;;13.58;100.00;100922.94;4979219;28;45372;-83
2023/04/11 03:04:24;;;;;;;;;1.00;1.00;;;;;13.30;100.00;100928.13;4980640;28;45412;-83
2023/04/11 03:06:49;;;;;;;;;0.33;0.33;;;;;13.29;100.00;100942.41;4986183;28;45403;-83
2023/04/11 03:09:15;;;;;;;;;3.33;3.00;;;;;13.25;100.00;100935.22;5048693;28;45326;-83
2023/04/11 03:11:40;;;;;;;;;0.67;0.67;;;;;13.17;100.00;100936.94;4979861;28;45906;-83
2023/04/11 03:14:05;;;;;;;;;1.00;1.00;;;;;13.18;100.00;100941.38;4980210;28;45420;-83
2023/04/11 03:16:31;;;;;;;;;1.00;1.00;;;;;13.17;100.00;100942.28;4979949;28;45776;-82
2023/04/11 03:18:57;;;;;;;;;2.33;2.00;;;;;13.22;100.00;100956.53;4980234;28;45174;-83
2023/04/11 03:21:23;;;;;;;;;1.00;1.00;;;;;13.26;100.00;100957.47;4981245;28;45346;-83
2023/04/11 03:23:49;;;;;;;;;2.00;2.00;;;;;13.22;100.00;100961.88;4982306;28;45401;-83
2023/04/11 03:26:14;;;;;;;;;0.00;0.00;;;;;13.24;100.00;100957.44;4983497;28;45314;-83
2023/04/11 03:28:40;;;;;;;;;1.00;0.33;;;;;13.24;100.00;100961.91;4982025;28;45252;-83
2023/04/11 03:31:06;;;;;;;;;1.00;1.00;;;;;13.31;100.00;100967.34;5047555;28;46882;-83
2023/04/11 03:33:31;;;;;;;;;1.67;1.00;;;;;13.20;100.00;100969.88;4982363;28;45370;-83
2023/04/11 03:35:57;;;;;;;;;3.67;2.00;;;;;13.22;100.00;100972.56;4982687;28;45676;-83
2023/04/11 03:38:22;;;;;;;;;2.67;2.00;;;;;13.23;100.00;100960.09;4984467;28;45522;-83
2023/04/11 03:40:47;;;;;;;;;0.00;0.00;;;;;13.31;100.00;100970.00;4981536;28;45479;-83
2023/04/11 03:43:14;;;;;;;;;2.33;1.00;;;;;13.39;100.00;100975.38;4999167;28;45836;-83
2023/04/11 03:45:39;;;;;;;;;7.67;2.67;;;;;13.29;100.00;100965.47;4983254;28;45460;-83
2023/04/11 03:48:05;;;;;;;;;3.67;3.33;;;;;13.34;100.00;100966.47;4984770;28;45497;-82
2023/04/11 03:50:30;;;;;;;;;1.00;1.00;;;;;13.39;100.00;100968.28;5044964;28;48263;-81
2023/04/11 03:52:56;;;;;;;;;1.00;1.00;;;;;13.42;100.00;100980.75;5050693;28;45742;-82
2023/04/11 03:55:21;;;;;;;;;3.00;1.00;;;;;13.49;100.00;100971.91;5050045;28;45345;-82
2023/04/11 03:57:46;;;;;;;;;1.00;1.00;;;;;13.51;100.00;100972.81;5050855;28;45418;-83
2023/04/11 04:00:13;;;;;;;;;4.00;2.33;;;;;13.53;100.00;100971.03;4984822;28;46459;-82
2023/04/11 04:02:38;;;;;;;;;4.00;1.00;;;;;13.61;100.00;100973.72;5052067;28;45702;-83
2023/04/11 04:05:04;;;;;;;;;0.00;0.00;;;;;13.59;100.00;100976.41;4984369;28;45416;-82
2023/04/11 04:07:30;;;;;;;;;3.00;2.00;;;;;13.58;100.00;100977.28;5051752;28;45708;-82
2023/04/11 04:09:56;;;;;;;;;4.00;2.67;;;;;13.61;100.00;100976.41;4985164;28;45465;-82
2023/04/11 04:12:21;;;;;;;;;1.00;1.00;;;;;13.61;100.00;100973.72;5052340;28;44949;-82
2023/04/11 04:14:47;;;;;;;;;3.00;2.00;;;;;13.62;100.00;100972.84;5052271;28;45853;-81
2023/04/11 04:17:15;;;;;;;;;2.33;2.33;;;;;13.62;100.00;100966.63;5053491;28;45442;-82
2023/04/11 04:19:41;;;;;;;;;3.67;1.00;;;;;13.53;100.00;100978.13;4983399;28;45339;-82
2023/04/11 04:22:16;;;;;;;;;3.33;1.33;;;;;13.46;100.00;100981.66;4982480;28;45290;-82
2023/04/11 04:24:44;;;;;;;;;2.33;2.33;;;;;13.45;100.00;100974.53;5050943;28;45504;-82
2023/04/11 04:27:12;;;;;;;;;2.00;2.00;;;;;13.37;100.00;100967.38;5053581;28;45413;-82
2023/04/11 04:29:45;;;;;;;;;2.33;2.00;;;;;13.37;100.00;100974.47;4984787;28;45475;-83
2023/04/11 04:32:13;;;;;;;;;3.00;3.00;;;;;13.36;100.00;100981.59;5049970;28;46010;-82
2023/04/11 04:34:49;;;;;;;;;2.00;2.00;;;;;13.43;100.00;100982.53;5049818;28;45751;-83
2023/04/11 04:37:22;;;;;;;;;4.00;4.00;;;;;13.33;100.00;100965.56;5052056;28;45516;-83
2023/04/11 04:39:54;;;;;;;;;2.67;1.00;;;;;13.48;100.00;100964.75;5050856;28;47426;-82
2023/04/11 04:42:24;;;;;;;;;2.00;2.00;;;;;13.52;100.00;100971.03;5058409;28;45778;-83
2023/04/11 04:44:51;;;;;;;;;2.33;1.00;;;;;13.32;100.00;100977.13;5066707;28;45486;-82
2023/04/11 04:47:17;;;;;;;;;2.00;2.00;;;;;13.24;100.00;100980.59;5066173;28;45404;-82
2023/04/11 04:49:44;;;;;;;;;1.00;1.00;;;;;13.20;100.00;100969.00;5065558;28;47850;-83
2023/04/11 04:52:09;;;;;;;;;1.33;1.33;;;;;13.23;100.00;100977.03;5068021;28;45458;-82
2023/04/11 04:54:35;;;;;;;;;2.67;1.00;;;;;13.20;100.00;100980.56;5069830;28;45659;-82
2023/04/11 04:57:00;;;;;;;;;2.00;2.00;;;;;13.24;100.00;100986.81;5066649;28;45881;-82
2023/04/11 04:59:26;;;;;;;;;3.33;1.67;;;;;13.23;100.00;100978.78;5069618;28;45895;-82
2023/04/11 05:01:52;;;;;;;;;2.00;1.00;;;;;13.15;100.00;100985.00;5068325;28;45447;-83
2023/04/11 05:04:18;;;;;;;;;1.33;1.33;;;;;13.13;100.00;100984.09;5067789;28;45417;-82
2023/04/11 05:06:44;;;;;;;;;4.67;0.33;;;;;13.09;100.00;100992.03;5068377;28;45612;-82
2023/04/11 05:09:09;;;;;;;;;2.00;1.00;;;;;13.10;100.00;101007.19;5066223;28;47381;-82
2023/04/11 05:11:35;;;;;;;;;1.00;1.00;;;;;13.05;100.00;100996.50;5066889;28;45559;-82
2023/04/11 05:14:00;;;;;;;;;2.67;2.67;;;;;13.16;100.00;101002.78;5067865;28;45398;-81
2023/04/11 05:16:26;;;;;;;;;1.00;1.00;;;;;13.15;100.00;100998.34;5067664;28;45821;-83
2023/04/11 05:18:51;;;;;;;;;9.00;2.00;;;;;13.14;100.00;101004.56;5066108;28;47110;-82
2023/04/11 05:21:16;;;;;;;;;2.00;2.00;;;;;13.15;100.00;101000.13;5064832;28;45857;-82
2023/04/11 05:23:42;;;;;;;;;1.00;1.00;;;;;13.12;100.00;101014.34;5064141;28;45464;-82
2023/04/11 05:26:08;;;;;;;;;3.00;1.67;;;;;13.15;100.00;101011.69;5065761;28;45460;-83
2023/04/11 05:28:34;;;;;;;;;1.33;1.33;;;;;13.06;100.00;101002.72;5062800;28;47328;-82
2023/04/11 05:31:00;;;;;;;;;2.00;2.00;;;;;13.10;100.00;101004.53;5062674;28;45746;-83
2023/04/11 05:33:25;;;;;;;;;3.33;1.33;;;;;13.13;100.00;101002.78;5066628;28;45398;-82
2023/04/11 05:35:51;;;;;;;;;1.00;1.00;;;;;13.10;100.00;101005.41;5064309;28;45620;-83
2023/04/11 05:38:17;;;;;;;;;1.00;1.00;;;;;13.13;100.00;101015.25;5063491;28;45565;-83
2023/04/11 05:40:42;;;;;;;;;1.00;1.00;;;;;13.11;100.00;101011.63;5055746;28;45436;-83
2023/04/11 05:43:12;;;;;;;;;7.00;4.00;;;;;13.27;100.00;101013.56;5032344;28;45449;-82
2023/04/11 05:45:38;;;;;;;;;1.67;1.67;;;;;13.24;100.00;101012.66;5050740;28;45354;-82
2023/04/11 05:48:06;;;;;;;;;2.00;1.00;;;;;13.26;100.00;101011.78;4992219;28;45996;-83
2023/04/11 05:50:35;;;;;;;;;4.67;2.00;;;;;13.27;100.00;101013.56;4984724;28;45472;-83
2023/04/11 05:53:01;;;;;;;;;1.67;1.33;;;;;13.24;100.00;101007.31;4982672;28;45438;-82
2023/04/11 05:55:26;;;;;;;;;1.00;1.00;;;;;13.24;100.00;101008.19;5052280;28;44864;-83
2023/04/11 05:57:51;;;;;;;;;1.67;1.67;;;;;13.29;100.00;101010.88;4987185;28;45673;-82
2023/04/11 06:00:17;;;;;;;;;0.67;0.67;;;;;13.32;100.00;101016.31;5053361;28;45425;-82
2023/04/11 06:02:43;;;;;;;;;5.00;2.00;;;;;13.37;100.00;101020.81;5050177;28;45692;-82
2023/04/11 06:05:10;;;;;;;;;4.00;3.00;;;;;13.48;100.00;101018.19;5051611;28;45380;-82
2023/04/11 06:07:37;;;;;;;;;3.00;1.00;;;;;13.52;100.00;101019.13;4984209;28;46277;-83
2023/04/11 06:10:07;;;;;;;;;2.00;1.67;;;;;13.67;100.00;101024.53;4986260;28;45350;-83
2023/04/11 06:12:34;;;;;;;;;3.33;2.00;;;;;13.52;100.00;101022.66;4983983;28;45444;-82
2023/04/11 06:15:00;;;;;;;;;3.00;2.67;;;;;13.51;100.00;101034.25;5034840;28;45537;-83
2023/04/11 06:17:26;;;;;;;;;2.33;1.00;;;;;13.56;100.00;101044.97;4962904;28;45409;-83
2023/04/11 06:19:51;;;;;;;;;3.67;1.67;;;;;13.60;100.00;101023.63;4968417;28;45515;-84
2023/04/11 06:22:17;;;;;;;;;2.00;1.00;;;;;13.84;100.00;101040.69;4967604;28;45516;-81
2023/04/11 06:24:44;;;;;;;;;3.00;1.00;;;;;13.91;100.00;101038.94;5031690;28;45524;-81
2023/04/11 06:27:10;;;;;;;;;4.00;2.00;;;;;13.76;100.00;101029.94;4976902;28;45460;-83
2023/04/11 06:29:37;;;;;;;;;1.33;1.33;;;;;13.88;100.00;101028.25;5035495;28;45519;-82
2023/04/11 06:32:02;;;;;;;;;0.67;0.67;;;;;13.92;100.00;101035.38;4980016;28;45322;-83
2023/04/11 06:34:28;;;;;;;;;2.00;0.00;;;;;13.96;100.00;101048.78;5056826;28;45537;-82
2023/04/11 06:36:53;;;;;;;;;1.67;0.00;;;;;14.01;100.00;101049.66;5054646;28;48476;-82
2023/04/11 06:40:12;;;;;;;;;0.33;0.00;;;;;14.49;100.00;101047.19;4984079;28;45418;-82
2023/04/11 06:42:37;;;;;;;;;1.33;0.33;;;;;14.27;100.00;101048.00;4985234;28;45463;-82
2023/04/11 06:45:04;;;;;;;;;0.67;0.67;;;;;14.39;100.00;101058.75;4986772;28;45460;-82
2023/04/11 06:47:29;;;;;;;;;3.00;1.00;;;;;14.44;100.00;101051.66;4986337;28;45459;-82
2023/04/11 06:49:55;;;;;;;;;3.33;2.00;;;;;14.52;100.00;101065.94;4985098;28;45313;-82
2023/04/11 06:52:20;;;;;;;;;3.00;2.00;;;;;14.54;100.00;101058.81;4986164;28;45437;-82
2023/04/11 06:54:47;;;;;;;;;4.00;2.67;;;;;14.61;100.00;101065.09;4986068;28;45414;-82
2023/04/11 06:57:13;;;;;;;;;4.00;1.33;;;;;14.76;100.00;101069.59;4984853;28;45411;-82
2023/04/11 06:59:39;;;;;;;;;3.00;2.33;;;;;14.58;100.00;101062.41;4985499;28;45588;-83
2023/04/11 07:02:04;;;;;;;;;3.00;3.00;;;;;14.63;100.00;101071.34;4967896;28;44790;-83
2023/04/11 07:04:30;;;;;;;;;0.67;0.33;;;;;14.64;100.00;101078.47;5042949;28;45553;-83
2023/04/11 07:06:55;;;;;;;;;2.00;2.00;;;;;14.70;100.00;101070.47;5054438;28;47052;-82
2023/04/11 07:09:22;;;;;;;;;2.00;1.00;;;;;14.84;100.00;101077.66;5055365;28;45761;-82
2023/04/11 07:11:48;;;;;;;;;5.00;3.00;;;;;14.70;100.00;101082.97;5046275;28;45248;-82
2023/04/11 07:14:13;;;;;;;;;3.00;1.00;;;;;14.80;100.00;101087.44;4985994;28;45510;-83
2023/04/11 07:16:39;;;;;;;;;1.00;1.00;;;;;14.94;100.00;101088.38;4980207;28;45350;-83
2023/04/11 07:19:05;;;;;;;;;1.00;1.00;;;;;15.01;100.00;101081.25;5056580;28;46197;-84
2023/04/11 07:21:31;;;;;;;;;3.00;3.00;;;;;15.07;100.00;101072.31;5056895;28;44871;-82
2023/04/11 07:23:56;;;;;;;;;6.67;2.00;;;;;15.08;100.00;101082.16;4987185;28;45307;-83
2023/04/11 07:26:22;;;;;;;;;1.67;1.67;;;;;15.19;100.00;101070.56;5057234;28;48168;-83
2023/04/11 07:28:48;;;;;;;;;3.00;1.00;;;;;15.23;100.00;101055.38;5057928;28;45472;-84
2023/04/11 07:31:15;;;;;;;;;2.00;2.00;;;;;15.29;100.00;101057.13;5054755;28;45417;-82
2023/04/11 07:33:42;;;;;;;;;1.33;1.00;;;;;15.32;100.00;101055.34;4986631;28;45358;-83
2023/04/11 07:36:08;;;;;;;;;3.33;3.00;;;;;15.36;100.00;101059.81;5071319;28;46615;-83
2023/04/11 07:39:14;;;;;;;;;3.67;2.00;;;;;15.80;100.00;101064.25;4986484;28;45474;-82
2023/04/11 07:41:39;;;;;;;;;2.67;2.67;;;;;15.51;100.00;101068.75;5065198;28;45460;-82
2023/04/11 07:44:06;;;;;;;;;3.00;1.00;;;;;15.64;100.00;101066.97;5053672;28;45675;-83
2023/04/11 07:46:32;;;;;;;;;1.00;1.00;;;;;15.67;100.00;101067.81;5047736;28;47430;-83
2023/04/11 07:49:01;;;;;;;;;4.00;2.00;;;;;15.82;100.00;101060.69;5018512;28;45389;-84
2023/04/11 07:51:28;;;;;;;;;1.00;1.00;;;;;15.67;100.00;101061.56;5059153;28;45316;-81
2023/04/11 07:53:54;;;;;;;;;3.00;2.00;;;;;15.87;100.00;101054.41;5055907;28;45460;-82
2023/04/11 07:57:16;;;;;;;;;2.00;2.00;;;;;16.00;100.00;101055.28;5047333;28;46871;-83
2023/04/11 07:59:42;;;;;;;;;2.33;1.00;;;;;15.73;100.00;101054.44;5032944;28;46067;-83
2023/04/11 08:02:14;;;;;;;;;1.67;1.67;;;;;16.08;100.00;101058.81;5064595;28;45401;-82
2023/04/11 08:04:39;;;;;;;;;2.00;2.00;;;;;15.88;100.00;101058.00;5068098;28;44818;-82
2023/04/11 08:07:05;;;;;;;;;2.00;2.00;;;;;15.92;100.00;101066.03;5055010;28;46218;-83
2023/04/11 08:09:31;;;;;;;;;5.00;1.33;;;;;15.97;100.00;101069.56;5042943;28;45259;-84
2023/04/11 08:11:57;;;;;;;;;2.33;0.67;;;;;16.13;100.00;101073.09;5062199;28;45540;-84
2023/04/11 08:14:23;;;;;;;;;1.33;1.00;;;;;16.17;100.00;101080.25;5049267;28;45534;-83
2023/04/11 08:16:51;;;;;;;;;2.33;2.00;;;;;16.30;100.00;101086.47;5055139;28;47008;-83
2023/04/11 08:19:18;;;;;;;;;1.00;1.00;;;;;16.44;100.00;101083.75;5047839;28;45389;-82
2023/04/11 08:28:27;;;;;;;;;1.67;1.67;;;;;16.46;100.00;101073.88;5050100;28;44839;-84
2023/04/11 08:30:57;;;;;;;;;3.00;1.00;;;;;16.50;100.00;101072.06;5068629;28;45432;-83
2023/04/11 08:33:24;;;;;;;;;3.00;2.00;;;;;16.59;100.00;101075.59;5060508;28;45356;-83
2023/04/11 08:35:49;;;;;;;;;2.00;1.00;;;;;16.65;100.00;101077.34;5047876;28;44923;-83
2023/04/11 08:38:15;;;;;;;;;1.33;1.00;;;;;16.66;100.00;101084.50;5038720;28;46281;-84
2023/04/11 08:40:40;;;;;;;;;2.00;0.33;;;;;16.72;100.00;101078.19;5044563;28;44801;-84
2023/04/11 08:43:10;;;;;;;;;7.00;2.33;;;;;16.89;100.00;101076.34;4987289;28;46238;-83
2023/04/11 08:45:39;;;;;;;;;4.33;4.33;;;;;16.83;100.00;101065.66;4984322;28;45525;-83
2023/04/11 08:48:06;;;;;;;;;3.00;3.00;;;;;16.90;100.00;101071.84;5049900;28;47726;-83
2023/04/11 08:53:59;;;;;;;;;4.33;4.00;;;;;17.19;100.00;101082.41;4989655;28;45367;-83
2023/04/11 08:56:25;;;;;;;;;4.67;3.67;;;;;17.15;100.00;101094.09;5059329;28;44963;-82
2023/04/11 08:58:50;;;;;;;;;3.00;3.00;;;;;17.13;100.00;101088.72;5061211;28;46963;-83
2023/04/11 09:01:39;;;;;;;;;4.00;3.00;;;;;17.62;100.00;101095.47;5059586;28;45468;-83
2023/04/11 09:04:04;;;;;;;;;2.00;2.00;;;;;17.44;100.00;101080.41;5057095;28;45433;-85
2023/04/11 09:06:31;;;;;;;;;1.00;1.00;;;;;17.53;100.00;101074.03;5062636;28;45581;-84
2023/04/11 09:08:58;;;;;;;;;2.50;2.50;;;;;17.62;100.00;101083.84;5060765;28;47095;-83
2023/04/11 09:14:48;;;;;;;;;4.00;2.00;;;;;17.70;100.00;101066.72;4988859;28;45397;-83
2023/04/11 09:17:41;;;;;;;;;1.75;0.00;;;;;18.18;100.00;101080.56;5061271;28;44857;-83
2023/04/11 09:20:25;;;;;;;;;2.25;2.25;;;;;18.12;100.00;101047.47;5042829;28;45594;-83
2023/04/11 09:22:52;;;;;;;;;2.67;2.33;;;;;18.08;100.00;101062.75;5036845;28;44876;-83
2023/04/11 09:25:25;;;;;;;;;7.00;3.00;;;;;18.21;100.00;101049.13;5060142;28;45452;-83
2023/04/11 09:28:07;;;;;;;;;2.00;2.00;;;;;18.21;100.00;101041.06;5058033;28;45327;-83
2023/04/11 09:30:36;;;;;;;;;4.00;3.00;;;;;18.18;100.00;101064.41;5036070;28;45511;-83
2023/04/11 09:33:31;;;;;;;;;2.00;2.00;;;;;18.35;100.00;101074.09;5047570;28;45906;-84
2023/04/11 09:35:56;;;;;;;;;3.33;3.33;;;;;18.12;100.00;101074.38;5036463;28;45429;-84
2023/04/11 09:38:37;;;;;;;;;3.25;3.25;;;;;18.49;100.00;101068.53;5047642;28;45591;-84
2023/04/11 09:41:09;;;;;;;;;3.67;1.00;;;;;18.38;100.00;101082.13;5050329;28;45448;-84
2023/04/11 09:43:50;;;;;;;;;5.67;3.00;;;;;18.43;100.00;101037.16;4932277;28;45514;-83
2023/04/11 09:46:30;;;;;;;;;3.00;2.50;;;;;18.46;100.00;101037.16;4958976;28;45310;-83
2023/04/11 09:48:56;;;;;;;;;3.67;3.00;;;;;18.44;100.00;101073.97;4955567;28;45410;-84
2023/04/11 09:51:28;;;;;;;;;3.67;3.00;;;;;18.75;100.00;101068.16;4956404;28;48346;-83
2023/04/11 09:53:54;;;;;;;;;4.00;2.00;;;;;18.54;100.00;101072.94;4949103;28;45508;-82
2023/04/11 09:56:21;;;;;;;;;3.67;2.33;;;;;18.51;100.00;101075.66;4952082;28;45390;-84
2023/04/11 09:58:47;;;;;;;;;1.00;1.00;;;;;18.56;100.00;101072.91;4949496;28;45446;-83
2023/04/11 10:01:13;;;;;;;;;3.00;3.00;;;;;18.69;100.00;101070.94;4947935;28;46978;-84
2023/04/11 10:03:41;;;;;;;;;3.00;2.75;;;;;18.79;100.00;101061.84;4949806;28;45426;-84
2023/04/11 10:06:32;;;;;;;;;2.00;2.00;;;;;19.01;100.00;101073.19;4950941;28;45660;-85
2023/04/11 10:09:12;;;;;;;;;3.00;3.00;;;;;19.03;100.00;101073.16;4947491;28;45364;-84
2023/04/11 10:11:44;;;;;;;;;2.50;2.50;;;;;18.99;100.00;101080.41;4947034;28;47188;-85
2023/04/11 10:14:41;;;;;;;;;5.00;5.00;;;;;19.12;100.00;101075.72;4947434;28;45350;-84
2023/04/11 10:17:20;;;;;;;;;2.75;2.75;;;;;19.01;100.00;101056.09;4949588;28;45401;-83
2023/04/11 10:19:47;;;;;;;;;2.75;2.75;;;;;18.83;100.00;101057.31;4937123;28;45451;-85
2023/04/11 10:22:47;;;;;;;;;1.75;1.75;;;;;19.33;100.00;101053.78;4935078;28;45268;-84
2023/04/11 10:25:26;;;;;;;;;3.50;2.75;;;;;19.23;100.00;101040.47;4942183;28;44930;-84
2023/04/11 10:27:52;;;;;;;;;1.75;1.75;;;;;19.16;100.00;101045.09;5026860;28;45336;-84
2023/04/11 10:30:42;;;;;;;;;6.00;3.00;;;;;19.53;100.00;101044.44;4956062;28;45314;-84
2023/04/11 10:33:24;;;;;;;;;;;;;;;;;;;;;
2023/04/11 10:36:13;;;;;;;;;1.75;1.00;;;;;19.97;100.00;101050.84;4944058;28;72055;-83
2023/04/11 10:38:39;;;;;;;;;3.67;2.33;;;;;19.66;100.00;101053.22;4951112;28;45487;-83
2023/04/11 10:58:44;;;;;;;;;7.00;4.50;;;;;20.49;100.00;101005.63;5121790;22;45485;-83
2023/04/11 11:01:36;;;;;;;;;4.25;2.75;;;;;20.92;100.00;101020.88;5018971;28;44764;-84
2023/04/11 11:06:38;;;;;;;;;4.75;4.00;;;;;20.47;100.00;101007.50;5235971;22;46890;-83
2023/04/11 11:19:31;;;;;;;;;5.67;4.33;;;;;20.33;100.00;100983.47;4973778;26;45247;-82
2023/04/11 11:22:03;;;;;;;;;4.25;3.25;;;;;20.31;100.00;100979.94;5019040;28;44781;-83
2023/04/11 11:24:32;;;;;;;;;2.25;2.00;;;;;20.42;100.00;100972.47;5032752;28;44968;-82
2023/04/11 11:27:21;;;;;;;;;4.00;4.00;;;;;20.55;100.00;100954.16;5287971;22;47331;-83
2023/04/11 11:29:50;;;;;;;;;4.75;3.25;;;;;20.54;100.00;100960.47;5032256;28;45783;-83
2023/04/11 11:32:28;;;;;;;;;2.00;2.00;;;;;20.73;100.00;100958.28;5037623;28;45343;-83
2023/04/11 11:34:56;;;;;;;;;5.00;4.00;;;;;20.47;100.00;100965.13;5036998;28;45357;-82
2023/04/11 11:46:14;;;;;;;;;2.33;1.00;;;;;20.68;100.00;100953.00;3694170;26;46103;-83
2023/04/11 11:48:58;;;;;;;;;1.25;1.00;;;;;20.69;100.00;100953.88;5024698;28;47008;-84
2023/04/11 11:51:24;;;;;;;;;0.75;0.75;;;;;20.63;100.00;100959.41;5019384;28;45372;-84
2023/04/11 11:54:09;;;;;;;;;4.00;2.00;;;;;20.98;100.00;100954.00;5015799;28;44778;-82
2023/04/11 11:56:51;;;;;;;;;6.00;4.00;;;;;20.99;100.00;100944.09;5031884;28;45574;-83
2023/04/11 11:59:27;;;;;;;;;1.50;1.50;;;;;21.16;100.00;100954.47;5013340;28;48207;-82
2023/04/11 12:01:52;;;;;;;;;3.00;2.00;;;;;20.85;100.00;100944.44;4999326;28;45458;-83
2023/04/11 12:04:22;;;;;;;;;4.00;2.50;;;;;21.12;100.00;100955.47;4999970;28;45206;-84
2023/04/11 12:09:47;;;;;;;;;2.00;2.00;;;;;21.10;100.00;100960.91;5253478;22;46889;-83
2023/04/11 12:12:16;;;;;;;;;2.50;2.50;;;;;20.68;100.00;100952.06;5046805;28;45248;-84
2023/04/11 12:14:54;;;;;;;;;2.00;2.00;;;;;20.85;100.00;100939.03;5052142;28;44905;-83
2023/04/11 12:17:58;;;;;;;;;2.25;1.25;;;;;20.89;100.00;100956.97;5028188;28;44912;-85
2023/04/11 12:20:27;;;;;;;;;1.00;1.00;;;;;20.66;100.00;100937.72;5032261;28;47195;-83
2023/04/11 12:22:55;;;;;;;;;1.50;1.00;;;;;20.72;100.00;100959.19;5031136;28;44838;-83
2023/04/11 12:25:31;;;;;;;;;2.25;1.75;;;;;20.88;100.00;100943.47;5036619;28;44861;-83
2023/04/11 12:27:56;;;;;;;;;1.50;1.50;;;;;20.78;100.00;100959.94;5291647;22;46223;-84
2023/04/11 12:30:22;;;;;;;;;1.75;1.00;;;;;20.81;100.00;100969.78;5050812;28;45542;-84